Flight Track Log - Related Links

Times and Time Zones

All times are in EST time to prevent confusion due to time zone crossing. See the EJA929 flight status page for this flight to view local times or setup timezone preferences in your user account.

Time Position Orientation Groundspeed Altitude Reporting Facility
EST Latitude Longitude Course Direction KTS MPH feet Rate Location/Type
Thu 09:49:35 AM 39.6269 -106.9572 244° Southwest 206 237 8,800  Level Denver Center
Thu 09:50:36 AM 39.6014 -107.0253 244° Southwest 219 252 14,000 4,439 Climbing Denver Center
Thu 09:51:38 AM 39.6617 -107.0347 353° North 224 258 17,900 2,537 Climbing Denver Center
Thu 09:52:39 AM 39.7164 -107.0683 335° Northwest 272 313 19,200 1,180 Climbing Denver Center
Thu 09:53:40 AM 39.7961 -107.0100 29° Northeast 373 429 20,300 2,115 Climbing Denver Center
Thu 09:54:41 AM 39.8544 -106.8497 65° Northeast 406 467 23,500 2,213 Climbing Denver Center
Thu 09:55:42 AM 39.9067 -106.7086 64° Northeast 427 491 24,800 878 Climbing Denver Center
Thu 09:56:44 AM 39.9669 -106.5422 65° Northeast 476 548 25,300 585 Climbing Denver Center
Thu 09:57:45 AM 40.0108 -106.3972 68° East 494 568 26,000 1,328 Climbing Denver Center
Thu 09:58:46 AM 40.0272 -106.2206 83° East 494 568 28,000 1,869 Climbing Denver Center
Thu 09:59:47 AM 40.0456 -106.0442 82° East 491 565 29,800 1,902 Climbing Denver Center
Thu 10:00:49 AM 40.0664 -105.8269 83° East 502 578 31,900 2,000 Climbing Denver Center
Thu 10:01:50 AM 40.0856 -105.6383 82° East 519 597 33,900 1,918 Climbing Denver Center
Thu 10:02:51 AM 40.1042 -105.4503 83° East 522 601 35,800 1,951 Climbing Denver Center
Thu 10:03:53 AM 40.1222 -105.2614 83° East 523 602 37,900 1,854 Climbing Denver Center
Thu 10:04:54 AM 40.1383 -105.0758 83° East 514 592 39,600 1,171 Climbing Denver Center
Thu 10:05:56 AM 40.1567 -104.8864 83° East 520 598 40,300 683 Climbing Denver Center
Thu 10:06:57 AM 40.1736 -104.6986 83° East 518 596 41,000 787 Climbing Denver Center
Thu 10:07:58 AM 40.1908 -104.5100 83° East 520 598 41,900 829 Climbing Denver Center
Thu 10:09:00 AM 40.2064 -104.3242 84° East 514 592 42,700 1,317 Climbing Denver Center
Thu 10:10:01 AM 40.2214 -104.1436 84° East 501 577 44,600 1,022 Climbing Denver Center
Thu 10:11:15 AM 40.2372 -103.9686 83° East 487 560 45,000 178 Climbing Denver Center
Thu 10:12:16 AM 40.2583 -103.7175 84° East 491 565 45,000  Level Denver Center
Thu 10:13:18 AM 40.2731 -103.5344 84° East 504 580 45,000  Level Denver Center
Thu 10:14:20 AM 40.2875 -103.3472 84° East 515 593 45,000  Level Denver Center
Thu 10:15:33 AM 40.3025 -103.1619 84° East 515 593 45,000  Level Denver Center
Thu 10:16:35 AM 40.3183 -102.9367 85° East 517 595 45,000  Level Denver Center
Thu 10:17:37 AM 40.3333 -102.7506 84° East 515 593 45,000  Level Denver Center
Thu 10:18:50 AM 40.3481 -102.5453 85° East 515 593 45,000  Level Denver Center
Thu 10:19:52 AM 40.3658 -102.3069 84° East 515 593 45,000  Level Denver Center
Thu 10:20:54 AM 40.3767 -102.1272 85° East 517 595 45,000  Level Denver Center
Thu 10:21:56 AM 40.3914 -101.9186 85° East 515 593 45,000  Level Denver Center
Thu 10:22:57 AM 40.4053 -101.7383 84° East 519 597 45,000  Level Denver Center
Thu 10:23:59 AM 40.4164 -101.5550 85° East 525 604 45,000  Level Denver Center
Thu 10:25:01 AM 40.4292 -101.3414 85° East 528 608 45,000  Level Denver Center
Thu 10:26:03 AM 40.4403 -101.1597 85° East 526 605 45,000  Level Denver Center
Thu 10:27:05 AM 40.4528 -100.9472 86° East 526 605 45,000  Level Denver Center
Thu 10:28:06 AM 40.4703 -100.7958 81° East 530 610 45,000  Level Denver Center
Thu 10:29:09 AM 40.5019 -100.5567 80° East 528 608 45,000  Level Denver Center
Thu 10:30:11 AM 40.5242 -100.3750 81° East 530 610 45,000  Level Denver Center
Thu 10:31:25 AM 40.5514 -100.1622 80° East 533 613 45,000  Level Denver Center
Thu 10:32:39 AM 40.5814 -99.9175 81° East 534 615 45,000  Level Denver Center
Thu 10:33:42 AM 40.6072 -99.7019 81° East 535 616 45,000  Level Denver Center
Thu 10:34:44 AM 40.6300 -99.5108 81° East 533 613 45,000  Level Denver Center
Thu 10:35:46 AM 40.6575 -99.2786 81° East 536 617 45,000  Level Denver Center
Thu 10:36:48 AM 40.6800 -99.0839 81° East 540 621 45,000  Level Denver Center
Thu 10:37:50 AM 40.7022 -98.8892 81° East 541 623 45,000  Level Denver Center
Thu 10:38:52 AM 40.7236 -98.6942 82° East 544 626 45,000  Level Denver Center
Thu 10:39:51 AM 40.7461 -98.4994 81° East 544 626 45,000  Level Minneapolis Center
Thu 10:40:52 AM 40.7667 -98.3036 82° East 545 627 45,000  Level Minneapolis Center
Thu 10:41:54 AM 40.7911 -98.0661 82° East 547 629 45,000  Level Minneapolis Center
Thu 10:42:56 AM 40.8119 -97.8681 82° East 547 629 45,000  Level Minneapolis Center
Thu 10:43:58 AM 40.8314 -97.6689 83° East 548 631 45,000  Level Minneapolis Center
Thu 10:45:00 AM 40.8517 -97.4703 82° East 548 631 45,000  Level Minneapolis Center
Thu 10:46:01 AM 40.8733 -97.2589 82° East 550 633 45,000  Level Minneapolis Center
Thu 10:47:03 AM 40.8928 -97.0592 83° East 550 633 45,000  Level Minneapolis Center
Thu 10:48:05 AM 40.9114 -96.8592 83° East 552 635 45,000  Level Minneapolis Center
Thu 10:49:07 AM 40.9342 -96.6581 81° East 554 638 45,000  Level Minneapolis Center
Thu 10:50:09 AM 40.9614 -96.4594 80° East 553 636 45,000  Level Minneapolis Center
Thu 10:51:11 AM 40.9953 -96.2244 79° East 548 631 45,000  Level Minneapolis Center
Thu 10:52:13 AM 41.0208 -96.0281 80° East 549 632 45,000  Level Minneapolis Center
Thu 10:53:15 AM 41.0461 -95.8322 80° East 548 631 45,000  Level Minneapolis Center
Thu 10:54:17 AM 41.0717 -95.6372 80° East 546 628 45,000  Level Minneapolis Center
Thu 10:55:19 AM 41.1017 -95.3981 80° East 550 633 45,000  Level Minneapolis Center
Thu 10:56:21 AM 41.1272 -95.1992 80° East 551 634 45,000  Level Minneapolis Center
Thu 10:57:23 AM 41.1517 -95.0003 81° East 549 632 45,000  Level Minneapolis Center
Thu 10:58:25 AM 41.1761 -94.8003 81° East 550 633 45,000  Level Minneapolis Center
Thu 10:59:28 AM 41.1986 -94.6006 81° East 549 632 45,000  Level Minneapolis Center
Thu 11:00:30 AM 41.2228 -94.3997 81° East 552 635 45,000  Level Minneapolis Center
Thu 11:01:32 AM 41.2481 -94.1794 81° East 551 634 45,000  Level Minneapolis Center
Thu 11:02:34 AM 41.2717 -93.9775 81° East 553 636 45,000  Level Minneapolis Center
Thu 11:03:36 AM 41.2947 -93.7758 81° East 554 638 45,000  Level Minneapolis Center
Thu 11:04:38 AM 41.3258 -93.5339 80° East 554 638 45,000  Level Minneapolis Center
Thu 11:05:40 AM 41.3556 -93.3269 79° East 565 650 45,000  Level Minneapolis Center
Thu 11:06:42 AM 41.3808 -93.1250 80° East 560 644 45,000 -242 Level Minneapolis Center
Thu 11:07:44 AM 41.4067 -92.9222 80° East 557 641 44,500 -1,065 Descending Minneapolis Center
Thu 11:08:46 AM 41.4328 -92.7211 80° East 554 638 42,800 -1,189 Descending Minneapolis Center
Thu 11:09:35 AM 41.4528 -92.5556 81° East 561 646 42,300 -757 Descending Chicago Center
Thu 11:10:37 AM 41.4783 -92.3475 81° East 551 634 41,400 -1,171 Descending Chicago Center
Thu 11:11:38 AM 41.5022 -92.1486 81° East 550 633 39,900 -1,366 Descending Chicago Center
Thu 11:12:40 AM 41.5192 -91.8986 85° East 571 657 38,600 -1,403 Descending Chicago Center
Thu 11:13:42 AM 41.5217 -91.6922 89° East 565 650 37,000 -2,081 Descending Chicago Center
Thu 11:14:44 AM 41.5236 -91.4792 89° East 575 662 34,300 -2,565 Descending Chicago Center
Thu 11:15:46 AM 41.5256 -91.2575 89° East 595 685 31,700 -2,226 Descending Chicago Center
Thu 11:16:48 AM 41.5717 -91.0475 74° East 597 687 29,700 -2,177 Descending Chicago Center
Thu 11:17:50 AM 41.6556 -90.8208 64° Northeast 581 669 27,200 -2,081 Descending Chicago Center
Thu 11:18:52 AM 41.7189 -90.6458 64° Northeast 542 624 25,400 -1,645 Descending Chicago Center
Thu 11:19:54 AM 41.7750 -90.4867 65° Northeast 513 590 23,800 -1,548 Descending Chicago Center
Thu 11:20:56 AM 41.8367 -90.3192 64° Northeast 492 566 22,200 -2,146 Descending Chicago Center
Thu 11:21:57 AM 41.8925 -90.1589 65° Northeast 482 555 19,400 -3,268 Descending Chicago Center
Thu 11:22:59 AM 41.9594 -89.9692 65° Northeast 476 548 15,500 -3,194 Descending Chicago Center
Thu 11:24:01 AM 42.0094 -89.8272 65° Northeast 444 511 12,800 -2,468 Descending Chicago Center
Thu 11:25:03 AM 42.0408 -89.6797 74° East 424 488 10,400 -1,355 Descending Chicago Center
Thu 11:26:05 AM 42.0308 -89.5269 95° East 418 481 10,000 -677 Descending Chicago Center
Thu 11:27:07 AM 42.0192 -89.4067 97° East 349 402 9,000 -1,306 Descending Chicago Center
Thu 11:28:09 AM 42.0125 -89.2875 94° East 322 371 7,300 -1,839 Descending Chicago Center
Thu 11:29:11 AM 42.0019 -89.1550 96° East 303 349 5,200 -742 Descending Chicago Center
Thu 11:31:15 AM 41.9750 -88.9433 100° East 287 330 5,000 -355 Descending Chicago Center
Thu 11:32:17 AM 41.9894 -88.8472 79° East 275 316 4,100 -484 Descending Chicago Center
Thu 11:33:19 AM 42.0150 -88.7511 70° East 272 313 4,000 -48 Descending Chicago Center
Thu 11:34:21 AM 42.0411 -88.6544 70° East 274 315 4,000  Level Chicago Center
Thu 11:35:23 AM 42.0733 -88.5372 70° East 277 319 4,000  Level Chicago Center
Thu 11:36:25 AM 42.0997 -88.4411 70° East 276 318 4,000 -290 Level Chicago Center
Thu 11:37:27 AM 42.1231 -88.3511 71° East 268 308 3,400 -726 Descending Chicago Center
Thu 11:38:29 AM 42.1442 -88.2733 70° East 249 287 2,500 -435 Descending Chicago Center
Thu 11:39:31 AM 42.1136 -88.2106 123° Southeast 221 254 2,500  Level Chicago Center
Thu 11:40:33 AM 42.0706 -88.1822 154° Southeast 218 251 2,500  Level Chicago Center
Thu 11:41:34 AM 42.0144 -88.2144 203° Southwest 195 224 2,500 -293 Level Chicago Center
Thu 11:42:36 AM 41.9678 -88.2308 195° South 183 211 1,900 -624 Descending Chicago Center
Thu 11:43:39 AM 41.9342 -88.2392 190° South 148 170 1,200 -667 Descending Chicago Center

Login

Don't have an account? Register now (free) for customized features, flight alerts, and more!